Time;durP1;ratioP1;P1;durP2;ratioP2;P2;SDS_P1;SDS_P2;PMS_P1;PMS_P2;Temp;Humidity;BMP_temperature;BMP_pressure;BME280_temperature;BME280_humidity;BME280_pressure;Samples;Min_cycle;Max_cycle;Signal;HPM_P1;HPM_P2
2022/04/10 00:02:01;;;;;;;18.05;2.97;;;2.70;99.90;;;;;;4972666;28;20050;-74
2022/04/10 00:04:27;;;;;;;17.83;2.83;;;2.70;99.90;;;;;;4965017;28;194168;-74
2022/04/10 00:06:53;;;;;;;22.65;3.40;;;2.60;99.90;;;;;;4957434;28;20046;-74
2022/04/10 00:09:19;;;;;;;19.85;3.17;;;2.60;99.90;;;;;;4982061;28;197656;-74
2022/04/10 00:11:45;;;;;;;18.15;3.17;;;2.60;99.90;;;;;;4963428;28;20044;-74
2022/04/10 00:14:11;;;;;;;26.58;3.05;;;2.60;99.90;;;;;;4985764;28;277171;-74
2022/04/10 00:16:37;;;;;;;18.15;3.05;;;2.60;99.90;;;;;;4947003;28;20045;-74
2022/04/10 00:19:04;;;;;;;22.05;3.08;;;2.60;99.90;;;;;;4979375;28;236492;-73
2022/04/10 00:21:31;;;;;;;21.00;2.92;;;2.60;99.90;;;;;;4928686;28;20049;-74
2022/04/10 00:23:58;;;;;;;17.67;2.90;;;2.60;99.90;;;;;;4959857;28;251697;-74
2022/04/10 00:26:25;;;;;;;19.40;3.40;;;2.60;99.90;;;;;;4952469;28;20042;-75
2022/04/10 00:28:56;;;;;;;17.23;2.55;;;2.60;99.90;;;;;;4973487;28;277697;-76
2022/04/10 00:31:22;;;;;;;;;;;2.60;99.90;;;;;;4954310;28;20524;-73
2022/04/10 00:33:49;;;;;;;21.80;3.45;;;2.60;99.90;;;;;;4993523;28;19953;-74
2022/04/10 00:36:15;;;;;;;27.65;3.53;;;2.50;99.90;;;;;;4941090;28;20050;-75
2022/04/10 00:38:41;;;;;;;14.30;2.55;;;2.50;99.90;;;;;;4992314;28;20069;-76
2022/04/10 00:41:07;;;;;;;15.75;3.28;;;2.50;99.90;;;;;;4940335;28;241654;-74
2022/04/10 00:43:36;;;;;;;19.73;3.03;;;2.50;99.90;;;;;;5004921;28;20045;-74
2022/04/10 00:46:02;;;;;;;19.45;3.63;;;2.50;99.90;;;;;;4948968;28;150294;-74
2022/04/10 00:48:28;;;;;;;18.90;2.90;;;2.50;99.90;;;;;;4975272;28;20463;-75
2022/04/10 00:54:02;;;;;;;20.67;3.60;;;2.40;99.90;;;;;;4929031;28;151086;-74
2022/04/10 00:56:29;;;;;;;17.08;2.85;;;2.40;99.90;;;;;;4909728;28;20575;-74
2022/04/10 00:58:55;;;;;;;20.23;3.10;;;2.40;99.90;;;;;;4913435;28;215375;-73
2022/04/10 01:01:21;;;;;;;19.50;3.10;;;2.40;99.90;;;;;;4925818;28;20051;-74
2022/04/10 01:03:47;;;;;;;24.55;3.08;;;2.40;99.90;;;;;;4939106;28;20066;-74
2022/04/10 01:06:13;;;;;;;20.60;3.05;;;2.30;99.90;;;;;;4875713;28;204589;-73
2022/04/10 01:08:40;;;;;;;21.17;3.65;;;2.40;99.90;;;;;;4924398;28;20059;-73
2022/04/10 01:11:06;;;;;;;20.70;2.58;;;2.40;99.90;;;;;;4925558;28;20704;-74
2022/04/10 01:13:33;;;;;;;20.80;2.88;;;2.40;99.90;;;;;;4942986;28;20043;-73
2022/04/10 01:15:59;;;;;;;22.23;3.08;;;2.40;99.90;;;;;;4891538;28;134651;-73
2022/04/10 01:18:25;;;;;;;18.80;2.97;;;2.40;99.90;;;;;;4927314;29;20224;-74
2022/04/10 01:20:52;;;;;;;25.52;3.28;;;2.40;99.90;;;;;;4890542;28;218264;-74
2022/04/10 01:23:19;;;;;;;24.60;3.00;;;2.30;99.90;;;;;;4957052;28;20063;-74
2022/04/10 01:25:45;;;;;;;23.77;3.15;;;2.30;99.90;;;;;;4962516;28;262726;-73
2022/04/10 01:28:12;;;;;;;22.13;3.00;;;2.30;99.90;;;;;;4980877;28;20084;-74
2022/04/10 01:30:39;;;;;;;17.55;2.80;;;2.30;99.90;;;;;;4962685;28;195307;-73
2022/04/10 01:33:05;;;;;;;17.67;2.83;;;2.30;99.90;;;;;;4978790;28;20053;-74
2022/04/10 01:35:32;;;;;;;20.58;3.50;;;2.30;99.90;;;;;;4949693;28;110241;-74
2022/04/10 01:38:00;;;;;;;20.75;2.80;;;2.30;99.90;;;;;;4977629;28;20632;-75
2022/04/10 01:40:26;;;;;;;17.65;3.03;;;2.20;99.90;;;;;;4971699;28;39177;-74
2022/04/10 01:42:52;;;;;;;22.33;3.50;;;2.20;99.90;;;;;;4943203;28;20046;-74
2022/04/10 01:45:19;;;;;;;18.52;2.83;;;2.20;99.90;;;;;;4990345;28;199909;-74
2022/04/10 01:47:45;;;;;;;14.57;2.83;;;2.20;99.90;;;;;;4990647;28;20510;-74
2022/04/10 01:50:11;;;;;;;22.67;3.47;;;2.20;99.90;;;;;;4994520;28;150418;-74
2022/04/10 01:52:37;;;;;;;18.38;2.80;;;2.20;99.90;;;;;;4974887;28;20038;-74
2022/04/10 01:55:04;;;;;;;17.52;3.00;;;2.20;99.90;;;;;;4992660;28;103131;-73
2022/04/10 01:57:30;;;;;;;18.17;3.45;;;2.20;99.90;;;;;;4975419;28;20045;-73
2022/04/10 01:59:56;;;;;;;18.77;3.08;;;2.20;99.90;;;;;;4984123;28;55867;-73
2022/04/10 02:02:22;;;;;;;19.45;2.50;;;2.20;99.90;;;;;;4962957;28;20046;-73
2022/04/10 02:04:48;;;;;;;21.38;3.10;;;2.10;99.90;;;;;;4958792;28;145182;-73
2022/04/10 02:07:14;;;;;;;20.17;3.13;;;2.10;99.90;;;;;;4928172;28;20210;-74
2022/04/10 02:09:40;;;;;;;21.85;3.10;;;2.10;99.90;;;;;;4976546;28;200003;-74
2022/04/10 02:12:08;;;;;;;23.20;3.30;;;2.20;99.90;;;;;;4989951;28;20060;-73
2022/04/10 02:14:34;;;;;;;21.80;3.20;;;2.20;99.90;;;;;;4992779;28;166580;-74
2022/04/10 02:17:00;;;;;;;19.15;3.17;;;2.20;99.90;;;;;;4968244;28;20049;-75
2022/04/10 02:19:26;;;;;;;18.00;2.90;;;2.10;99.90;;;;;;4989936;28;141083;-74
2022/04/10 02:21:54;;;;;;;20.92;3.45;;;2.10;99.90;;;;;;4969172;28;20414;-74
2022/04/10 02:24:21;;;;;;;24.10;3.00;;;2.10;99.90;;;;;;4983525;28;104759;-73
2022/04/10 02:26:47;;;;;;;23.92;3.40;;;2.10;99.90;;;;;;4954693;28;20056;-74
2022/04/10 02:29:13;;;;;;;19.27;3.70;;;2.10;99.90;;;;;;4981409;28;264189;-74
2022/04/10 02:31:39;;;;;;;24.27;3.40;;;2.10;99.90;;;;;;4976141;28;20045;-74
2022/04/10 02:34:05;;;;;;;17.08;2.92;;;2.20;99.90;;;;;;4984760;28;268486;-73
2022/04/10 02:36:31;;;;;;;21.23;3.30;;;2.10;99.90;;;;;;4965504;28;20064;-73
2022/04/10 02:38:57;;;;;;;18.25;2.58;;;2.10;99.90;;;;;;4985639;28;267287;-73
2022/04/10 02:41:24;;;;;;;16.55;2.90;;;2.10;99.90;;;;;;4955485;28;20566;-73
2022/04/10 02:43:50;;;;;;;17.70;3.03;;;2.20;99.90;;;;;;4975736;28;257165;-75
2022/04/10 02:46:16;;;;;;;19.63;2.92;;;2.20;99.90;;;;;;4965320;28;20054;-76
2022/04/10 02:48:42;;;;;;;19.73;2.80;;;2.20;99.90;;;;;;5004055;28;20057;-75
2022/04/10 02:51:08;;;;;;;17.98;3.03;;;2.20;99.90;;;;;;4957614;28;218544;-74
2022/04/10 02:53:35;;;;;;;20.75;2.97;;;2.30;99.90;;;;;;4992791;28;20061;-75
2022/04/10 02:56:01;;;;;;;14.07;2.33;;;2.30;99.90;;;;;;4958218;28;162150;-74
2022/04/10 02:58:27;;;;;;;21.25;3.40;;;2.40;99.90;;;;;;5001512;28;20046;-74
2022/04/10 03:00:53;;;;;;;18.27;3.25;;;2.50;99.90;;;;;;4957935;28;197180;-74
2022/04/10 03:03:19;;;;;;;16.13;2.78;;;2.60;99.90;;;;;;4981751;28;20042;-75
2022/04/10 03:05:45;;;;;;;16.60;2.83;;;2.70;99.90;;;;;;4935678;28;199378;-74
2022/04/10 03:08:12;;;;;;;14.82;2.58;;;2.70;99.90;;;;;;4970055;28;20407;-74
2022/04/10 03:10:38;;;;;;;15.52;2.70;;;2.70;99.90;;;;;;4962211;28;50129;-76
2022/04/10 03:13:05;;;;;;;18.88;2.78;;;2.80;99.90;;;;;;5014400;28;20428;-75
2022/04/10 03:15:31;;;;;;;17.33;2.50;;;2.80;99.90;;;;;;4944723;28;249514;-75
2022/04/10 03:17:57;;;;;;;13.57;2.58;;;2.80;99.90;;;;;;4990420;28;20045;-76
2022/04/10 03:20:23;;;;;;;16.50;2.58;;;2.90;99.90;;;;;;4975911;28;20534;-76
2022/04/10 03:22:49;;;;;;;13.80;2.03;;;2.90;99.90;;;;;;4974797;28;20037;-75
2022/04/10 03:25:15;;;;;;;18.98;2.40;;;2.90;99.90;;;;;;4993731;28;177909;-76
2022/04/10 03:27:41;;;;;;;12.13;2.28;;;2.90;99.90;;;;;;4985309;28;20045;-75
2022/04/10 03:30:08;;;;;;;16.27;2.25;;;2.90;99.90;;;;;;4963959;28;146264;-75
2022/04/10 03:32:34;;;;;;;17.13;2.58;;;3.00;99.90;;;;;;4967949;28;20073;-75
2022/04/10 03:35:00;;;;;;;16.73;2.63;;;3.00;99.90;;;;;;4979807;28;207563;-75
2022/04/10 03:37:26;;;;;;;18.23;2.30;;;3.00;99.90;;;;;;4955287;28;20116;-74
2022/04/10 03:39:53;;;;;;;11.52;1.90;;;3.00;99.90;;;;;;4983755;28;266313;-75
2022/04/10 03:42:19;;;;;;;15.40;2.40;;;3.00;99.90;;;;;;4934977;28;20050;-75
2022/04/10 03:44:45;;;;;;;16.10;2.33;;;3.10;99.90;;;;;;4966544;28;225007;-77
2022/04/10 03:47:11;;;;;;;13.13;2.10;;;3.00;99.90;;;;;;4966520;28;20053;-74
2022/04/10 03:49:37;;;;;;;13.85;1.80;;;3.00;99.90;;;;;;4992164;28;92331;-74
2022/04/10 03:52:04;;;;;;;17.02;2.28;;;2.90;99.90;;;;;;4944895;28;20545;-76
2022/04/10 03:54:31;;;;;;;14.15;2.15;;;2.90;99.90;;;;;;4966417;28;225866;-75
2022/04/10 03:56:57;;;;;;;10.48;1.77;;;2.90;99.90;;;;;;4972930;28;20057;-74
2022/04/10 03:59:24;;;;;;;13.40;1.60;;;2.80;99.90;;;;;;4986381;28;264241;-74
2022/04/10 04:01:51;;;;;;;10.93;1.58;;;2.80;99.90;;;;;;4965015;28;20512;-74
2022/04/10 04:04:17;;;;;;;10.52;1.50;;;2.80;99.90;;;;;;4969104;28;215068;-75
2022/04/10 04:06:43;;;;;;;11.88;1.67;;;2.80;99.90;;;;;;4966734;28;20429;-74
2022/04/10 04:09:09;;;;;;;7.05;1.20;;;2.80;99.90;;;;;;4985965;28;274906;-74
2022/04/10 04:11:35;;;;;;;9.23;1.50;;;2.80;99.90;;;;;;4956868;28;20038;-73
2022/04/10 04:14:01;;;;;;;10.85;1.40;;;2.80;99.90;;;;;;4960664;28;272958;-74
2022/04/10 04:16:27;;;;;;;7.55;1.13;;;2.80;99.90;;;;;;4962293;28;20041;-74
2022/04/10 04:18:53;;;;;;;6.70;1.08;;;2.70;99.90;;;;;;4980963;28;253861;-74
2022/04/10 04:21:19;;;;;;;9.57;1.40;;;2.70;99.90;;;;;;4939142;28;20050;-75
2022/04/10 04:23:45;;;;;;;6.25;1.10;;;2.70;99.90;;;;;;4984008;28;20065;-75
2022/04/10 04:26:12;;;;;;;9.48;1.30;;;2.60;99.90;;;;;;4909394;28;254494;-74
2022/04/10 04:28:38;;;;;;;10.32;1.40;;;2.60;99.90;;;;;;4988344;28;20061;-74
2022/04/10 04:31:04;;;;;;;11.88;1.30;;;2.60;99.90;;;;;;4967855;28;241586;-76
2022/04/10 04:33:30;;;;;;;7.70;1.17;;;2.60;99.90;;;;;;4978184;28;20057;-74
2022/04/10 04:35:56;;;;;;;7.50;1.33;;;2.60;99.90;;;;;;4946991;28;214975;-75
2022/04/10 04:38:22;;;;;;;6.18;1.40;;;2.50;99.90;;;;;;4974831;28;20076;-75
2022/04/10 04:40:48;;;;;;;8.43;1.33;;;2.50;99.90;;;;;;4951361;28;275232;-75
2022/04/10 04:43:14;;;;;;;10.52;1.40;;;2.50;99.90;;;;;;4983448;28;20057;-75
2022/04/10 04:45:40;;;;;;;9.80;1.70;;;2.40;99.90;;;;;;4948048;28;116524;-76
2022/04/10 04:48:07;;;;;;;9.07;1.50;;;2.40;99.90;;;;;;5000668;28;20073;-75
2022/04/10 04:50:33;;;;;;;12.80;2.10;;;2.40;99.90;;;;;;4953609;28;176769;-74
2022/04/10 04:52:59;;;;;;;11.43;1.50;;;2.40;99.90;;;;;;4965794;28;20522;-74
2022/04/10 04:55:26;;;;;;;13.73;1.83;;;2.40;99.90;;;;;;4963536;28;240621;-75
2022/04/10 04:57:52;;;;;;;11.30;1.70;;;2.30;99.90;;;;;;4980707;28;20049;-74
2022/04/10 05:00:19;;;;;;;11.80;1.50;;;2.30;99.90;;;;;;4983914;28;202231;-74
2022/04/10 05:02:45;;;;;;;12.00;1.70;;;2.30;99.90;;;;;;4968886;28;20528;-74
2022/04/10 05:05:12;;;;;;;10.93;1.83;;;2.30;99.90;;;;;;4958272;28;217295;-74
2022/04/10 05:07:38;;;;;;;12.07;1.60;;;2.30;99.90;;;;;;4958496;28;20038;-74
2022/04/10 05:10:04;;;;;;;10.40;1.85;;;2.30;99.90;;;;;;4987001;28;202040;-75
2022/04/10 05:12:32;;;;;;;8.73;1.65;;;2.30;99.90;;;;;;4963748;28;20045;-74
2022/04/10 05:14:59;;;;;;;9.48;1.92;;;2.30;99.90;;;;;;4992765;28;47929;-74
2022/04/10 05:17:26;;;;;;;14.68;1.90;;;2.30;99.90;;;;;;4971272;28;20093;-75
2022/04/10 05:19:53;;;;;;;11.20;1.73;;;2.30;99.90;;;;;;4962700;28;254350;-74
2022/04/10 05:22:19;;;;;;;9.90;1.73;;;2.40;99.90;;;;;;4966973;28;20042;-74
2022/04/10 05:24:45;;;;;;;12.35;1.88;;;2.50;99.90;;;;;;4972210;28;20630;-74
2022/04/10 05:27:11;;;;;;;15.38;1.92;;;2.60;99.90;;;;;;4966415;28;20112;-74
2022/04/10 05:29:37;;;;;;;12.68;2.10;;;2.70;99.90;;;;;;4982489;28;137405;-73
2022/04/10 05:32:04;;;;;;;13.63;1.90;;;2.70;99.90;;;;;;4956226;28;20050;-75
2022/04/10 05:34:30;;;;;;;13.50;2.00;;;2.80;99.90;;;;;;4981249;28;234553;-74
2022/04/10 05:36:56;;;;;;;16.17;3.65;;;2.90;99.90;;;;;;4963302;28;20056;-74
2022/04/10 05:39:22;;;;;;;11.75;2.00;;;3.00;99.90;;;;;;4979332;28;160169;-74
2022/04/10 05:41:49;;;;;;;14.73;2.60;;;3.20;99.90;;;;;;4957658;28;20048;-74
2022/04/10 05:44:15;;;;;;;16.77;1.80;;;3.20;99.90;;;;;;4987371;28;94486;-74
2022/04/10 05:46:41;;;;;;;13.88;2.10;;;3.20;99.90;;;;;;4974639;28;20449;-74
2022/04/10 05:49:07;;;;;;;11.80;1.80;;;3.20;99.90;;;;;;4982937;28;254329;-74
2022/04/10 05:51:33;;;;;;;14.70;2.45;;;3.20;99.90;;;;;;4949634;28;20097;-75
2022/04/10 05:54:00;;;;;;;15.15;2.15;;;3.30;99.90;;;;;;4976135;28;262867;-75
2022/04/10 05:56:26;;;;;;;9.90;2.25;;;3.20;99.90;;;;;;4985636;28;21631;-76
2022/04/10 05:58:52;;;;;;;11.70;1.90;;;3.30;99.90;;;;;;4979975;28;256079;-75
2022/04/10 06:01:19;;;;;;;12.45;2.28;;;3.40;99.90;;;;;;4957390;28;20365;-76
2022/04/10 06:03:45;;;;;;;9.98;1.85;;;3.40;99.90;;;;;;4991647;28;20505;-74
2022/04/10 06:06:11;;;;;;;12.85;1.88;;;3.50;99.90;;;;;;4945907;28;149594;-74
2022/04/10 06:08:38;;;;;;;12.80;2.05;;;3.50;99.90;;;;;;4995406;28;20050;-75
2022/04/10 06:11:04;;;;;;;8.77;1.60;;;3.60;99.90;;;;;;4938909;28;139464;-76
2022/04/10 06:13:30;;;;;;;9.80;1.88;;;3.60;99.90;;;;;;5014453;28;20050;-74
2022/04/10 06:15:56;;;;;;;10.90;2.00;;;3.60;99.90;;;;;;4964748;28;24753;-75
2022/04/10 06:18:22;;;;;;;12.15;1.88;;;3.50;99.90;;;;;;4980290;28;20049;-74
2022/04/10 06:20:48;;;;;;;12.35;1.98;;;3.50;99.90;;;;;;4944214;28;196177;-74
2022/04/10 06:23:14;;;;;;;13.52;1.83;;;3.60;99.90;;;;;;4991711;28;20057;-74
2022/04/10 06:25:41;;;;;;;10.88;1.95;;;3.80;99.90;;;;;;4934151;28;78682;-75
2022/04/10 06:28:07;;;;;;;9.55;1.70;;;4.10;99.90;;;;;;4982617;28;20062;-75
2022/04/10 06:30:33;;;;;;;11.95;1.90;;;4.30;99.90;;;;;;4959103;28;107182;-76
2022/04/10 06:32:59;;;;;;;11.95;1.70;;;4.70;99.90;;;;;;4999295;28;20057;-75
2022/04/10 06:35:25;;;;;;;9.82;1.55;;;5.00;99.90;;;;;;4990663;28;40442;-75
2022/04/10 06:37:52;;;;;;;7.50;1.75;;;5.40;99.90;;;;;;4959327;28;20050;-75
2022/04/10 06:40:18;;;;;;;10.98;1.85;;;5.70;99.90;;;;;;5004482;28;142728;-75
2022/04/10 06:42:44;;;;;;;10.95;1.70;;;6.00;99.90;;;;;;4975070;28;20048;-75
2022/04/10 06:45:10;;;;;;;11.20;1.58;;;6.20;99.90;;;;;;4993404;28;248932;-75
2022/04/10 06:47:36;;;;;;;11.43;1.90;;;6.40;99.90;;;;;;4975877;28;20043;-78
2022/04/10 06:50:03;;;;;;;11.70;1.48;;;6.70;99.90;;;;;;4991210;28;270497;-75
2022/04/10 06:52:29;;;;;;;11.48;1.73;;;6.70;99.90;;;;;;4975618;28;20037;-75
2022/04/10 06:54:55;;;;;;;12.57;1.60;;;6.80;99.90;;;;;;4979839;28;249002;-77
2022/04/10 06:57:21;;;;;;;13.48;1.70;;;7.10;99.90;;;;;;4972504;28;20049;-78
2022/04/10 06:59:47;;;;;;;11.10;1.60;;;6.60;99.90;;;;;;4966524;28;186572;-77
2022/04/10 07:02:14;;;;;;;11.10;1.67;;;6.20;99.90;;;;;;4982259;28;20095;-76
2022/04/10 07:04:40;;;;;;;11.57;1.92;;;5.80;99.90;;;;;;4977822;28;123986;-77
2022/04/10 07:07:06;;;;;;;12.80;2.00;;;5.70;99.90;;;;;;4946688;28;20053;-77
2022/04/10 07:09:32;;;;;;;13.93;2.08;;;5.60;99.90;;;;;;4984271;28;254280;-75
2022/04/10 07:11:58;;;;;;;11.73;1.85;;;5.80;99.90;;;;;;4957891;28;20042;-74
2022/04/10 07:14:24;;;;;;;13.20;1.70;;;6.30;99.90;;;;;;5005113;28;106857;-76
2022/04/10 07:16:50;;;;;;;10.35;1.70;;;6.60;99.90;;;;;;4977408;28;20104;-75
2022/04/10 07:19:17;;;;;;;8.80;1.52;;;7.00;99.90;;;;;;4966347;28;232487;-76
2022/04/10 07:24:38;;;;;;;12.77;1.58;;;7.50;99.90;;;;;;4891826;28;229554;-76
2022/04/10 07:27:04;;;;;;;9.77;1.60;;;7.70;99.90;;;;;;4851754;29;20055;-76
2022/04/10 07:29:31;;;;;;;11.10;1.70;;;7.80;99.90;;;;;;4891740;29;106041;-74
2022/04/10 07:31:57;;;;;;;10.50;2.13;;;7.80;99.90;;;;;;4881696;28;20155;-76
2022/04/10 07:34:23;;;;;;;8.60;1.48;;;8.20;99.90;;;;;;4883838;29;149291;-78
2022/04/10 07:36:49;;;;;;;13.23;1.95;;;8.50;99.90;;;;;;4859587;29;20067;-77
2022/04/10 07:39:15;;;;;;;13.02;1.95;;;8.70;99.90;;;;;;4882490;29;123998;-77
2022/04/10 07:41:41;;;;;;;11.98;1.67;;;8.60;99.90;;;;;;4888550;29;20051;-80
2022/04/10 07:44:07;;;;;;;7.88;1.70;;;8.60;99.90;;;;;;4890398;28;135947;-76
2022/04/10 07:49:18;;;;;;;11.27;1.90;;;7.80;99.90;;;;;;4898775;29;249186;-78
2022/04/10 07:51:44;;;;;;;16.88;2.42;;;7.90;99.90;;;;;;4858851;29;20121;-78
2022/04/10 07:54:11;;;;;;;10.35;1.73;;;7.90;99.90;;;;;;4885078;29;174847;-78
2022/04/10 07:56:37;;;;;;;15.32;2.13;;;8.00;99.90;;;;;;4894259;28;20044;-76
2022/04/10 07:59:03;;;;;;;10.20;1.83;;;7.80;99.90;;;;;;4911577;28;29647;-76
2022/04/10 08:01:29;;;;;;;10.43;1.90;;;7.90;99.90;;;;;;4929202;28;20030;-78
2022/04/10 08:03:55;;;;;;;10.52;1.98;;;7.90;99.90;;;;;;4965690;28;269053;-76
2022/04/10 08:06:21;;;;;;;13.57;2.15;;;8.10;99.90;;;;;;4964776;28;20096;-78
2022/04/10 08:08:47;;;;;;;15.20;2.33;;;8.40;99.90;;;;;;5000760;28;20054;-76
2022/04/10 08:11:14;;;;;;;13.50;2.10;;;8.80;99.90;;;;;;4958391;28;49440;-77
2022/04/10 08:13:40;;;;;;;11.18;2.00;;;9.20;99.90;;;;;;4995720;28;20410;-77
2022/04/10 08:16:06;;;;;;;11.65;1.92;;;9.30;99.90;;;;;;4959549;28;117214;-78
2022/04/10 08:18:32;;;;;;;11.15;2.13;;;9.00;99.90;;;;;;4982403;28;20050;-77
2022/04/10 08:20:58;;;;;;;12.73;2.10;;;8.90;99.90;;;;;;4954064;28;172799;-77
2022/04/10 08:23:25;;;;;;;14.13;2.08;;;9.20;99.90;;;;;;4987002;28;20519;-76
2022/04/10 08:25:51;;;;;;;12.25;1.88;;;9.80;99.90;;;;;;4952912;28;159369;-76
2022/04/10 08:28:17;;;;;;;13.38;2.10;;;9.90;99.90;;;;;;4982036;28;20459;-76
2022/04/10 08:30:43;;;;;;;14.95;2.10;;;9.30;99.20;;;;;;4959119;28;109256;-76
2022/04/10 08:33:09;;;;;;;16.13;2.28;;;9.50;99.90;;;;;;4974793;28;20045;-79
2022/04/10 08:35:35;;;;;;;12.63;2.63;;;9.60;99.90;;;;;;4942705;28;255922;-76
2022/04/10 08:38:01;;;;;;;14.05;2.17;;;9.70;99.90;;;;;;4972673;28;20059;-77
2022/04/10 08:40:31;;;;;;;13.30;1.90;;;9.90;99.90;;;;;;4968524;28;181281;-76
2022/04/10 08:42:59;;;;;;;14.68;2.10;;;10.40;99.90;;;;;;4973141;28;20050;-75
2022/04/10 08:45:26;;;;;;;12.60;1.83;;;10.40;98.60;;;;;;4974305;28;111317;-77
2022/04/10 08:47:53;;;;;;;11.52;2.00;;;10.30;96.30;;;;;;4980746;28;20045;-75
2022/04/10 08:50:19;;;;;;;13.57;2.22;;;10.00;96.80;;;;;;4971733;28;224969;-76
2022/04/10 08:52:46;;;;;;;10.85;1.70;;;9.80;97.60;;;;;;4971407;28;20038;-76
2022/04/10 08:55:12;;;;;;;13.18;2.25;;;10.50;96.50;;;;;;4972431;28;202683;-75
2022/04/10 08:57:38;;;;;;;12.95;1.95;;;10.10;96.10;;;;;;4955936;28;20041;-76
2022/04/10 09:00:05;;;;;;;14.02;2.17;;;9.50;95.00;;;;;;4977770;28;170938;-79
2022/04/10 09:02:31;;;;;;;13.13;2.42;;;9.00;96.10;;;;;;4956200;28;20135;-76
2022/04/10 09:04:57;;;;;;;12.27;1.70;;;8.70;97.80;;;;;;4959377;28;179062;-75
2022/04/10 09:07:24;;;;;;;13.25;1.83;;;8.60;98.80;;;;;;4950337;28;20518;-76
2022/04/10 09:09:56;;;;;;;15.00;2.05;;;8.20;96.90;;;;;;4978813;28;166184;-77
2022/04/10 09:12:23;;;;;;;11.40;1.75;;;8.10;97.40;;;;;;4947548;28;20293;-75
2022/04/10 09:14:50;;;;;;;12.93;2.20;;;7.90;97.50;;;;;;5010401;28;20109;-78
2022/04/10 09:17:20;;;;;;;11.48;1.67;;;8.30;97.80;;;;;;4967398;28;20038;-78
2022/04/10 09:19:48;;;;;;;12.25;1.75;;;9.10;98.10;;;;;;4981267;28;232950;-76
2022/04/10 09:22:26;;;;;;;10.88;1.58;;;10.00;96.10;;;;;;4952864;28;20046;-75
2022/04/10 09:25:04;;;;;;;9.38;1.77;;;10.40;95.20;;;;;;4990312;28;109126;-73
2022/04/10 09:27:35;;;;;;;13.48;1.80;;;10.70;91.80;;;;;;4960203;28;20050;-74
2022/04/10 09:30:03;;;;;;;;;;;10.50;94.60;;;;;;4982938;28;258852;-73
2022/04/10 09:32:38;;;;;;;11.02;1.85;;;10.20;91.60;;;;;;4992112;28;20269;-75
2022/04/10 09:35:04;;;;;;;13.07;1.60;;;9.50;92.80;;;;;;4994147;28;256336;-73
2022/04/10 09:37:40;;;;;;;10.35;1.60;;;9.80;94.20;;;;;;4995266;28;20402;-73
2022/04/10 09:40:29;;;;;;;9.60;1.70;;;10.40;93.10;;;;;;4993806;28;260005;-73
2022/04/10 09:43:00;;;;;;;11.23;1.50;;;11.00;86.50;;;;;;4958988;28;20041;-73
2022/04/10 09:45:40;;;;;;;12.32;1.85;;;11.70;90.60;;;;;;4973473;28;180384;-73
2022/04/10 09:48:22;;;;;;;10.77;1.38;;;12.20;75.80;;;;;;4983208;28;20038;-72
2022/04/10 09:50:56;;;;;;;11.88;1.40;;;11.40;72.10;;;;;;4967083;28;293792;-72
2022/04/10 09:53:22;;;;;;;11.07;1.75;;;11.60;76.10;;;;;;5011410;28;20065;-72
2022/04/10 09:55:53;;;;;;;12.90;1.80;;;10.90;83.70;;;;;;4949382;28;20812;-73
2022/04/10 09:58:20;;;;;;;;;;;10.30;88.30;;;;;;5004098;28;20054;-72
2022/04/10 10:00:47;;;;;;;15.07;2.03;;;9.90;92.60;;;;;;4955080;28;134950;-72
2022/04/10 10:03:14;;;;;;;12.13;1.90;;;9.70;96.50;;;;;;5001746;28;20049;-73
2022/04/10 10:05:41;;;;;;;11.18;1.88;;;9.30;96.30;;;;;;4934906;28;203523;-72
2022/04/10 10:08:08;;;;;;;13.05;1.90;;;9.50;97.80;;;;;;4983222;28;20054;-73
2022/04/10 10:10:36;;;;;;;13.15;1.60;;;10.00;98.30;;;;;;4937181;28;94570;-73
2022/04/10 10:13:07;;;;;;;13.27;1.70;;;10.50;96.90;;;;;;4980725;28;20278;-73
2022/04/10 10:15:35;;;;;;;12.77;1.85;;;10.60;95.40;;;;;;4936693;28;48334;-73
2022/04/10 10:18:04;;;;;;;11.98;1.70;;;10.80;95.00;;;;;;4996338;28;20045;-73
2022/04/10 10:20:31;;;;;;;10.15;1.90;;;11.10;95.40;;;;;;4965063;28;148216;-73
2022/04/10 10:23:01;;;;;;;14.07;2.33;;;11.90;94.60;;;;;;5005723;28;20068;-73
2022/04/10 10:25:29;;;;;;;12.00;1.92;;;12.10;91.50;;;;;;4972886;28;139495;-72
2022/04/10 10:28:23;;;;;;;10.60;1.60;;;11.50;88.40;;;;;;4958834;28;20054;-73
2022/04/10 10:30:54;;;;;;;12.45;2.10;;;10.90;92.90;;;;;;4966619;28;266227;-73
2022/04/10 10:33:22;;;;;;;9.75;1.60;;;10.40;94.50;;;;;;4994525;28;20525;-73
2022/04/10 10:35:55;;;;;;;10.20;1.75;;;9.90;93.60;;;;;;4944466;28;47248;-73
2022/04/10 10:38:30;;;;;;;13.20;1.90;;;10.10;95.10;;;;;;5000591;28;21025;-73
2022/04/10 10:41:19;;;;;;;10.85;1.52;;;11.00;95.10;;;;;;4964416;28;265477;-73
2022/04/10 10:43:46;;;;;;;9.15;1.60;;;11.90;89.50;;;;;;4940901;29;20214;-73
2022/04/10 10:46:20;;;;;;;15.68;1.80;;;11.80;88.70;;;;;;4896436;28;64723;-73
2022/04/10 10:48:47;;;;;;;11.98;1.85;;;11.60;85.60;;;;;;4920521;29;20522;-73
2022/04/10 10:51:13;;;;;;;10.48;1.50;;;11.50;82.50;;;;;;4881312;28;241073;-73
2022/04/10 10:53:43;;;;;;;13.18;2.05;;;11.70;87.60;;;;;;4930955;28;20104;-73
2022/04/10 10:56:29;;;;;;;13.63;1.80;;;12.10;91.50;;;;;;4888304;28;251957;-75
2022/04/10 10:59:18;;;;;;;9.77;1.52;;;12.50;78.70;;;;;;4918727;29;166750;-72
2022/04/10 11:02:11;;;;;;;9.85;1.55;;;12.00;78.60;;;;;;4902260;28;20047;-72
2022/04/10 11:04:42;;;;;;;13.40;1.70;;;12.00;78.50;;;;;;4878379;29;150685;-73
2022/04/10 11:07:27;;;;;;;9.73;1.60;;;12.70;85.70;;;;;;4855579;29;20076;-73
2022/04/10 11:10:14;;;;;;;7.90;1.52;;;12.90;79.20;;;;;;4877339;29;87798;-73
2022/04/10 11:12:50;;;;;;;8.38;1.50;;;13.10;77.50;;;;;;4873202;29;20047;-73
2022/04/10 11:15:21;;;;;;;8.32;1.80;;;12.90;78.40;;;;;;4873458;29;237126;-73
2022/04/10 11:17:49;;;;;;;12.05;1.80;;;13.10;80.70;;;;;;4862964;29;20541;-74
2022/04/10 11:20:17;;;;;;;11.27;1.83;;;13.40;78.20;;;;;;4879539;29;57574;-74
2022/04/10 11:22:54;;;;;;;10.85;1.58;;;13.70;81.80;;;;;;4910066;28;20047;-74
2022/04/10 11:25:38;;;;;;;9.45;1.60;;;14.00;73.20;;;;;;4947381;28;136038;-74
2022/04/10 11:28:08;;;;;;;10.38;1.55;;;13.90;72.40;;;;;;4918342;28;20058;-73
2022/04/10 11:30:41;;;;;;;8.77;1.67;;;13.90;71.30;;;;;;4902244;28;102547;-73
2022/04/10 11:33:13;;;;;;;12.43;1.67;;;13.60;67.70;;;;;;4923323;28;20051;-73
2022/04/10 11:35:41;;;;;;;9.07;1.60;;;13.80;71.80;;;;;;4915987;28;191105;-73
2022/04/10 11:38:17;;;;;;;12.40;1.40;;;13.90;69.70;;;;;;4932782;28;20055;-73
2022/04/10 11:40:49;;;;;;;8.85;1.40;;;13.20;65.90;;;;;;4903191;28;20529;-73
2022/04/10 11:43:18;;;;;;;9.48;1.58;;;13.00;63.60;;;;;;4999174;28;20046;-73
2022/04/10 11:45:45;;;;;;;12.32;1.65;;;13.40;65.50;;;;;;4957787;28;140563;-74
2022/04/10 11:48:12;;;;;;;13.13;1.70;;;13.80;59.90;;;;;;4979729;28;20057;-74
2022/04/10 11:50:38;;;;;;;9.32;1.20;;;13.80;61.10;;;;;;4962620;28;275744;-73
2022/04/10 11:53:12;;;;;;;11.40;1.52;;;14.20;64.40;;;;;;4980577;28;20046;-74
2022/04/10 11:55:46;;;;;;;10.77;1.58;;;14.20;62.50;;;;;;4944066;28;255043;-73
2022/04/10 11:58:18;;;;;;;9.38;1.55;;;14.20;64.20;;;;;;4974697;28;20054;-74
2022/04/10 12:00:50;;;;;;;10.38;1.70;;;13.60;63.50;;;;;;4934681;28;165183;-74
2022/04/10 12:03:17;;;;;;;10.95;1.55;;;13.10;64.60;;;;;;4968699;28;20058;-73
2022/04/10 12:05:44;;;;;;;10.82;1.83;;;12.80;63.30;;;;;;4922450;28;112696;-72
2022/04/10 12:08:10;;;;;;;8.50;1.33;;;12.90;65.00;;;;;;4981118;28;20057;-72
2022/04/10 12:10:36;;;;;;;10.60;1.58;;;13.30;65.10;;;;;;4957738;28;105875;-72
2022/04/10 12:13:04;;;;;;;10.02;1.35;;;13.40;64.50;;;;;;4998545;28;20065;-73
2022/04/10 12:15:32;;;;;;;8.85;1.45;;;13.10;62.80;;;;;;4951335;28;90882;-73
2022/04/10 12:18:06;;;;;;;9.40;1.85;;;12.60;63.90;;;;;;4980790;28;20058;-73
2022/04/10 12:20:34;;;;;;;10.18;1.30;;;11.70;65.00;;;;;;4962935;28;45519;-73
2022/04/10 12:23:00;;;;;;;8.63;1.30;;;12.10;65.10;;;;;;4999558;28;20058;-73
2022/04/10 12:25:27;;;;;;;7.93;1.27;;;12.80;65.80;;;;;;4985179;28;21812;-72
2022/04/10 12:27:54;;;;;;;8.05;1.30;;;13.40;60.40;;;;;;4932830;28;20050;-74
2022/04/10 12:30:21;;;;;;;9.38;1.38;;;13.40;60.10;;;;;;4954649;28;87111;-74
2022/04/10 12:32:47;;;;;;;11.10;1.80;;;12.70;61.10;;;;;;4914875;28;20057;-73
2022/04/10 12:35:14;;;;;;;11.18;1.83;;;11.60;64.90;;;;;;4970570;28;264126;-73
2022/04/10 12:37:58;;;;;;;9.52;1.55;;;11.40;66.70;;;;;;4971224;28;20057;-72
2022/04/10 12:40:27;;;;;;;11.25;1.42;;;11.30;69.20;;;;;;4982207;28;241153;-72
2022/04/10 12:42:59;;;;;;;10.98;1.60;;;12.20;67.80;;;;;;4968961;28;20133;-72
2022/04/10 12:45:27;;;;;;;8.55;1.45;;;12.80;62.40;;;;;;4976863;28;253968;-72
2022/04/10 12:47:53;;;;;;;7.68;1.42;;;13.30;61.60;;;;;;4961511;28;20049;-72
2022/04/10 12:50:22;;;;;;;8.77;1.38;;;13.80;61.60;;;;;;4993098;28;261774;-72
2022/04/10 12:52:48;;;;;;;9.23;1.38;;;13.70;58.30;;;;;;4983586;28;20037;-72
2022/04/10 12:55:19;;;;;;;9.70;1.50;;;13.40;61.60;;;;;;4978232;28;136212;-72